createdAt,value
2023-03-12T00:02:06.187Z,13.47
2023-03-12T00:04:36.049Z,14.30
2023-03-12T00:07:06.467Z,13.87
2023-03-12T00:09:37.390Z,13.47
2023-03-12T00:12:04.878Z,14.60
2023-03-12T00:14:32.810Z,21.20
2023-03-12T00:17:00.562Z,17.60
2023-03-12T00:19:28.011Z,17.57
2023-03-12T00:21:57.504Z,16.57
2023-03-12T00:24:25.347Z,15.63
2023-03-12T00:26:52.720Z,17.50
2023-03-12T00:29:20.038Z,18.87
2023-03-12T00:31:47.874Z,19.03
2023-03-12T00:34:15.695Z,19.67
2023-03-12T00:36:43.286Z,18.57
2023-03-12T00:39:10.859Z,20.47
2023-03-12T00:41:38.124Z,17.43
2023-03-12T00:44:06.392Z,18.10
2023-03-12T00:46:33.800Z,18.43
2023-03-12T00:49:01.214Z,17.83
2023-03-12T00:51:28.535Z,17.97
2023-03-12T00:53:56.407Z,17.27
2023-03-12T00:56:24.732Z,17.37
2023-03-12T00:58:52.057Z,17.03
2023-03-12T01:01:19.831Z,18.37
2023-03-12T01:03:47.944Z,18.50
2023-03-12T01:06:15.254Z,16.93
2023-03-12T01:08:42.982Z,18.93
2023-03-12T01:11:13.912Z,18.37
2023-03-12T01:13:41.242Z,17.73
2023-03-12T01:16:08.637Z,17.83
2023-03-12T01:18:36.193Z,15.93
2023-03-12T01:21:03.556Z,15.77
2023-03-12T01:23:31.106Z,14.47
2023-03-12T01:25:59.708Z,15.63
2023-03-12T01:28:27.343Z,15.60
2023-03-12T01:30:54.673Z,17.73
2023-03-12T01:33:28.405Z,15.40
2023-03-12T01:35:56.396Z,15.00
2023-03-12T01:38:23.835Z,16.13
2023-03-12T01:40:51.180Z,15.83
2023-03-12T01:43:30.555Z,17.53
2023-03-12T01:46:24.173Z,12.70
2023-03-12T01:49:08.445Z,14.60
2023-03-12T01:51:38.130Z,12.87
2023-03-12T01:54:08.053Z,11.57
2023-03-12T01:56:36.682Z,12.57
2023-03-12T01:59:07.781Z,14.33
2023-03-12T02:01:35.168Z,14.40
2023-03-12T02:04:02.765Z,15.03
2023-03-12T02:06:33.680Z,14.93
2023-03-12T02:09:02.073Z,16.43
2023-03-12T02:11:30.213Z,17.30
2023-03-12T02:13:57.611Z,15.40
2023-03-12T02:16:25.920Z,16.47
2023-03-12T02:18:55.318Z,15.43
2023-03-12T02:21:24.006Z,14.63
2023-03-12T02:24:07.670Z,15.20
2023-03-12T02:26:37.116Z,14.77
2023-03-12T02:29:05.725Z,14.63
2023-03-12T02:31:36.352Z,14.93
2023-03-12T02:34:04.080Z,14.63
2023-03-12T02:36:31.800Z,15.10
2023-03-12T02:38:59.113Z,15.17
2023-03-12T02:41:29.117Z,15.47
2023-03-12T02:43:56.478Z,14.77
2023-03-12T02:46:27.607Z,15.10
2023-03-12T02:48:55.855Z,14.30
2023-03-12T02:51:23.521Z,14.80
2023-03-12T02:53:54.809Z,15.40
2023-03-12T02:56:26.302Z,14.63
2023-03-12T02:58:54.209Z,14.53
2023-03-12T03:01:22.512Z,15.60
2023-03-12T03:03:50.151Z,16.03
2023-03-12T03:06:18.253Z,15.70
2023-03-12T03:08:45.701Z,18.93
2023-03-12T03:11:13.109Z,18.93
2023-03-12T03:13:40.996Z,17.97
2023-03-12T03:16:09.262Z,19.30
2023-03-12T03:18:36.620Z,18.77
2023-03-12T03:21:08.558Z,20.03
2023-03-12T03:23:37.393Z,18.27
2023-03-12T03:26:04.917Z,18.50
2023-03-12T03:28:32.419Z,18.17
2023-03-12T03:31:02.392Z,19.20
2023-03-12T03:33:35.680Z,19.70
2023-03-12T03:36:05.527Z,17.83
2023-03-12T03:38:36.061Z,16.50
2023-03-12T03:41:04.506Z,11.60
2023-03-12T03:43:34.393Z,15.43
2023-03-12T03:46:03.001Z,12.17
2023-03-12T03:48:34.045Z,14.93
2023-03-12T03:51:02.637Z,13.23
2023-03-12T03:53:32.823Z,13.10
2023-03-12T03:56:05.934Z,12.57
2023-03-12T03:58:33.637Z,14.83
2023-03-12T04:01:01.086Z,14.70
2023-03-12T04:03:28.714Z,16.90
2023-03-12T04:05:57.589Z,17.17
2023-03-12T04:08:25.697Z,20.37
2023-03-12T04:10:53.723Z,19.37
2023-03-12T04:13:21.717Z,18.33
2023-03-12T04:15:49.892Z,18.40
2023-03-12T04:18:17.954Z,18.83
2023-03-12T04:20:45.319Z,15.63
2023-03-12T04:23:12.653Z,17.50
2023-03-12T04:25:40.246Z,16.73
2023-03-12T04:28:07.884Z,17.77
2023-03-12T04:30:38.241Z,17.87
2023-03-12T04:33:06.562Z,18.17
2023-03-12T04:35:34.217Z,17.33
2023-03-12T04:38:02.119Z,18.77
2023-03-12T04:40:29.527Z,17.27
2023-03-12T04:42:57.068Z,15.83
2023-03-12T04:45:24.689Z,17.60
2023-03-12T04:47:51.986Z,15.80
2023-03-12T04:50:19.481Z,15.80
2023-03-12T04:52:47.044Z,16.67
2023-03-12T04:55:14.299Z,13.93
2023-03-12T04:57:41.767Z,14.23
2023-03-12T05:00:13.304Z,14.57
2023-03-12T05:02:42.177Z,15.20
2023-03-12T05:05:11.448Z,16.33
2023-03-12T05:07:39.392Z,16.47
2023-03-12T05:10:07.297Z,15.37
2023-03-12T05:12:34.633Z,14.93
2023-03-12T05:15:01.972Z,12.90
2023-03-12T05:17:29.421Z,13.30
2023-03-12T05:19:56.781Z,15.07
2023-03-12T05:22:24.164Z,15.20
2023-03-12T05:24:51.502Z,14.37
2023-03-12T05:27:20.114Z,13.20
2023-03-12T05:29:47.506Z,12.13
2023-03-12T05:32:15.587Z,12.80
2023-03-12T05:34:42.967Z,11.13
2023-03-12T05:37:10.430Z,10.17
2023-03-12T05:39:38.431Z,7.80
2023-03-12T05:42:06.497Z,9.73
2023-03-12T05:44:35.472Z,7.60
2023-03-12T05:47:02.951Z,8.37
2023-03-12T05:49:31.272Z,6.60
2023-03-12T05:51:59.044Z,7.07
2023-03-12T05:54:27.072Z,5.97
2023-03-12T05:56:56.034Z,5.27
2023-03-12T05:59:24.961Z,5.70
2023-03-12T06:01:53.710Z,5.97
2023-03-12T06:04:21.129Z,5.60
2023-03-12T06:06:48.845Z,6.33
2023-03-12T06:09:16.279Z,5.93
2023-03-12T06:11:43.587Z,6.23
2023-03-12T06:14:11.097Z,6.60
2023-03-12T06:16:38.953Z,7.47
2023-03-12T06:19:07.769Z,7.73
2023-03-12T06:21:35.930Z,15.13
2023-03-12T06:24:05.124Z,7.10
2023-03-12T06:26:40.644Z,7.03
2023-03-12T06:29:07.942Z,9.03
2023-03-12T06:31:38.405Z,7.37
2023-03-12T06:34:06.381Z,8.20
2023-03-12T06:36:33.939Z,10.47
2023-03-12T06:39:01.305Z,8.70
2023-03-12T06:41:28.975Z,8.70
2023-03-12T06:43:56.348Z,10.40
2023-03-12T06:46:25.700Z,8.97
2023-03-12T06:48:53.090Z,9.10
2023-03-12T06:51:20.469Z,6.80
2023-03-12T06:53:47.789Z,6.10
2023-03-12T06:56:15.723Z,8.27
2023-03-12T06:58:43.068Z,6.77
2023-03-12T07:01:10.591Z,7.60
2023-03-12T07:03:37.902Z,6.80
2023-03-12T07:06:05.825Z,6.33
2023-03-12T07:08:33.153Z,6.10
2023-03-12T07:11:01.908Z,5.93
2023-03-12T07:13:29.553Z,5.97
2023-03-12T07:15:56.896Z,5.83
2023-03-12T07:18:24.221Z,6.07
2023-03-12T07:20:52.513Z,6.90
2023-03-12T07:23:19.941Z,6.73
2023-03-12T07:25:47.970Z,7.30
2023-03-12T07:28:15.724Z,6.70
2023-03-12T07:30:43.028Z,6.10
2023-03-12T07:33:12.092Z,5.57
2023-03-12T07:35:40.316Z,6.67
2023-03-12T07:38:08.337Z,5.40
2023-03-12T07:40:36.149Z,4.83
2023-03-12T07:43:04.144Z,4.70
2023-03-12T07:45:33.295Z,4.93
2023-03-12T07:48:00.683Z,3.93
2023-03-12T07:50:28.035Z,4.83
2023-03-12T07:52:55.443Z,3.10
2023-03-12T07:55:22.912Z,3.13
2023-03-12T07:57:50.326Z,3.10
2023-03-12T08:00:17.990Z,4.13
2023-03-12T08:02:45.865Z,3.73
2023-03-12T08:05:13.604Z,3.80
2023-03-12T08:07:41.042Z,4.20
2023-03-12T08:10:09.228Z,3.30
2023-03-12T08:12:37.615Z,3.60
2023-03-12T08:15:06.113Z,3.20
2023-03-12T08:17:33.383Z,3.27
2023-03-12T08:20:00.683Z,3.10
2023-03-12T08:22:28.046Z,3.23
2023-03-12T08:24:55.461Z,3.17
2023-03-12T08:27:22.874Z,2.90
2023-03-12T08:29:50.297Z,3.37
2023-03-12T08:32:17.686Z,3.17
2023-03-12T08:34:45.102Z,3.03
2023-03-12T08:37:12.771Z,3.27
2023-03-12T08:39:40.083Z,3.27
2023-03-12T08:42:07.743Z,2.73
2023-03-12T08:44:35.476Z,2.90
2023-03-12T08:47:02.830Z,3.27
2023-03-12T08:49:30.143Z,2.77
2023-03-12T08:51:57.460Z,3.53
2023-03-12T08:54:24.834Z,2.80
2023-03-12T08:56:53.033Z,3.40
2023-03-12T08:59:20.803Z,3.27
2023-03-12T09:01:48.462Z,3.70
2023-03-12T09:04:16.428Z,3.13
2023-03-12T09:06:44.035Z,2.70
2023-03-12T09:09:11.560Z,3.27
2023-03-12T09:11:42.525Z,2.90
2023-03-12T09:16:58.140Z,3.33
2023-03-12T09:19:25.748Z,3.20
2023-03-12T09:21:53.117Z,3.40
2023-03-12T09:24:23.684Z,2.77
2023-03-12T09:26:51.777Z,3.30
2023-03-12T09:29:19.077Z,2.60
2023-03-12T09:31:46.390Z,3.83
2023-03-12T09:34:13.765Z,3.10
2023-03-12T09:36:41.134Z,4.67
2023-03-12T09:39:08.448Z,2.87
2023-03-12T09:41:38.909Z,3.30
2023-03-12T09:44:12.273Z,2.93
2023-03-12T09:46:42.794Z,4.13
2023-03-12T09:49:25.923Z,3.17
2023-03-12T09:51:56.103Z,3.50
2023-03-12T09:54:26.609Z,3.27
2023-03-12T09:56:55.668Z,4.37
2023-03-12T09:59:23.092Z,4.33
2023-03-12T10:01:53.197Z,3.60
2023-03-12T10:04:25.150Z,4.03
2023-03-12T10:06:52.904Z,4.07
2023-03-12T10:09:20.365Z,3.70
2023-03-12T10:12:07.185Z,4.13
2023-03-12T10:14:34.503Z,4.33
2023-03-12T10:17:17.611Z,5.17
2023-03-12T10:19:51.713Z,5.10
2023-03-12T10:22:30.516Z,4.57
2023-03-12T10:25:06.667Z,4.10
2023-03-12T10:27:37.439Z,5.40
2023-03-12T10:30:13.874Z,6.40
2023-03-12T10:32:43.595Z,4.90
2023-03-12T10:35:15.531Z,5.00
2023-03-12T10:37:48.943Z,4.10
2023-03-12T10:40:17.493Z,4.93
2023-03-12T10:42:44.823Z,4.63
2023-03-12T10:45:12.184Z,5.13
2023-03-12T10:47:39.430Z,5.30
2023-03-12T10:50:12.870Z,5.60
2023-03-12T10:52:40.382Z,5.40
2023-03-12T10:55:20.831Z,5.37
2023-03-12T10:57:48.701Z,5.50
2023-03-12T11:00:26.564Z,6.30
2023-03-12T11:02:58.889Z,5.70
2023-03-12T11:05:26.185Z,6.20
2023-03-12T11:07:54.339Z,6.40
2023-03-12T11:10:24.722Z,6.40
2023-03-12T11:12:56.952Z,5.83
2023-03-12T11:15:26.222Z,6.10
2023-03-12T11:18:06.060Z,7.17
2023-03-12T11:20:33.466Z,6.60
2023-03-12T11:23:14.089Z,7.57
2023-03-12T11:25:41.490Z,6.33
2023-03-12T11:28:13.676Z,7.37
2023-03-12T11:33:52.441Z,7.63
2023-03-12T11:36:19.722Z,8.97
2023-03-12T11:38:54.536Z,7.43
2023-03-12T11:41:27.676Z,13.47
2023-03-12T11:44:03.508Z,7.67
2023-03-12T11:46:40.102Z,7.77
2023-03-12T11:49:07.469Z,7.70
2023-03-12T11:51:47.014Z,8.03
2023-03-12T11:54:17.406Z,7.63
2023-03-12T11:56:52.419Z,8.60
2023-03-12T11:59:19.845Z,8.23
2023-03-12T12:01:57.324Z,7.60
2023-03-12T12:04:30.419Z,7.67
2023-03-12T12:07:21.100Z,6.90
2023-03-12T12:09:48.375Z,6.93
2023-03-12T12:12:21.951Z,6.63
2023-03-12T12:14:55.799Z,6.27
2023-03-12T12:17:23.068Z,6.33
2023-03-12T12:20:03.404Z,7.27
2023-03-12T12:22:42.927Z,8.17
2023-03-12T12:25:17.647Z,7.50
2023-03-12T12:27:49.666Z,7.93
2023-03-12T12:30:28.699Z,8.00
2023-03-12T12:33:04.112Z,7.57
2023-03-12T12:35:37.965Z,8.30
2023-03-12T12:38:12.356Z,8.77
2023-03-12T12:40:44.808Z,8.00
2023-03-12T12:43:32.340Z,7.47
2023-03-12T12:46:04.940Z,6.83
2023-03-12T12:48:43.934Z,7.60
2023-03-12T12:51:12.338Z,7.00
2023-03-12T12:53:39.987Z,6.77
2023-03-12T12:56:21.100Z,7.27
2023-03-12T12:58:58.717Z,6.07
2023-03-12T13:01:27.996Z,6.10
2023-03-12T13:04:03.692Z,6.10
2023-03-12T13:06:50.925Z,5.77
2023-03-12T13:09:22.306Z,6.53
2023-03-12T13:11:51.587Z,6.63
2023-03-12T13:14:24.231Z,6.50
2023-03-12T13:17:06.960Z,6.87
2023-03-12T13:19:40.623Z,7.33
2023-03-12T13:22:11.126Z,7.53
2023-03-12T13:24:44.633Z,7.87
2023-03-12T13:27:20.492Z,7.20
2023-03-12T13:29:51.402Z,8.20
2023-03-12T13:32:36.936Z,8.10
2023-03-12T13:35:08.403Z,7.67
2023-03-12T13:37:47.810Z,8.80
2023-03-12T13:40:30.495Z,8.70
2023-03-12T13:43:14.897Z,9.93
2023-03-12T13:45:55.943Z,10.27
2023-03-12T13:48:25.410Z,9.53
2023-03-12T13:50:54.992Z,9.97
2023-03-12T13:53:28.038Z,13.38
2023-03-12T13:56:07.642Z,11.77
2023-03-12T13:58:55.098Z,10.13
2023-03-12T14:01:24.651Z,9.90
2023-03-12T14:03:56.380Z,9.80
2023-03-12T14:06:25.338Z,11.63
2023-03-12T14:08:58.291Z,10.77
2023-03-12T14:11:25.686Z,10.17
2023-03-12T14:14:08.647Z,10.73
2023-03-12T14:16:46.092Z,12.40
2023-03-12T14:19:14.080Z,12.10
2023-03-12T14:21:43.367Z,12.83
2023-03-12T14:24:17.260Z,13.50
2023-03-12T14:26:47.170Z,13.40
2023-03-12T14:29:22.477Z,13.67
2023-03-12T14:31:50.078Z,15.20
2023-03-12T14:34:25.241Z,17.87
2023-03-12T14:37:05.870Z,18.67
2023-03-12T14:39:33.218Z,20.43
2023-03-12T14:42:05.307Z,19.80
2023-03-12T14:44:33.762Z,21.73
2023-03-12T14:47:14.946Z,22.17
2023-03-12T14:49:43.511Z,22.13
2023-03-12T14:52:24.500Z,23.87
2023-03-12T14:55:00.194Z,23.77
2023-03-12T14:57:27.678Z,24.13
2023-03-12T15:00:01.511Z,25.73
2023-03-12T15:02:30.834Z,25.70
2023-03-12T15:05:00.331Z,24.07
2023-03-12T15:07:39.492Z,27.10
2023-03-12T15:10:08.456Z,28.63
2023-03-12T15:12:37.403Z,24.67
2023-03-12T15:15:08.229Z,28.27
2023-03-12T15:17:36.102Z,25.07
2023-03-12T15:20:09.599Z,27.67
2023-03-12T15:22:37.697Z,27.03
2023-03-12T15:25:16.326Z,26.00
2023-03-12T15:27:43.622Z,25.63
2023-03-12T15:30:24.669Z,25.90
2023-03-12T15:33:09.412Z,25.03
2023-03-12T15:35:38.397Z,22.60
2023-03-12T15:38:06.605Z,23.63
2023-03-12T15:40:34.014Z,22.23
2023-03-12T15:43:07.547Z,22.17
2023-03-12T15:45:39.493Z,23.67
2023-03-12T15:48:17.643Z,24.33
2023-03-12T15:50:45.511Z,23.83
2023-03-12T15:53:12.851Z,26.67
2023-03-12T15:55:43.784Z,25.30
2023-03-12T15:58:31.540Z,33.47
2023-03-12T16:01:12.729Z,27.47
2023-03-12T16:03:40.865Z,27.90
2023-03-12T16:06:23.196Z,26.67
2023-03-12T16:08:52.102Z,29.90
2023-03-12T16:11:20.752Z,31.07
2023-03-12T16:13:49.202Z,29.23
2023-03-12T16:16:16.596Z,28.83
2023-03-12T16:18:44.591Z,30.97
2023-03-12T16:21:12.381Z,34.60
2023-03-12T16:23:40.056Z,33.07
2023-03-12T16:26:07.630Z,30.63
2023-03-12T16:28:36.031Z,32.77
2023-03-12T16:31:03.815Z,33.13
2023-03-12T16:33:31.298Z,36.83
2023-03-12T16:35:59.146Z,34.17
2023-03-12T16:38:26.549Z,36.13
2023-03-12T16:40:54.233Z,32.33
2023-03-12T16:43:25.653Z,33.83
2023-03-12T16:45:56.799Z,34.73
2023-03-12T16:48:27.703Z,33.77
2023-03-12T16:50:56.866Z,33.50
2023-03-12T16:53:24.588Z,34.17
2023-03-12T16:55:54.379Z,32.03
2023-03-12T16:58:22.930Z,33.73
2023-03-12T17:00:50.785Z,32.23
2023-03-12T17:03:36.424Z,32.00
2023-03-12T17:06:05.178Z,32.30
2023-03-12T17:08:32.625Z,29.07
2023-03-12T17:11:00.603Z,27.57
2023-03-12T17:13:29.498Z,32.67
2023-03-12T17:15:57.810Z,32.23
2023-03-12T17:18:25.412Z,27.47
2023-03-12T17:20:53.142Z,27.43
2023-03-12T17:23:31.819Z,26.50
2023-03-12T17:25:59.710Z,26.53
2023-03-12T17:28:27.139Z,24.57
2023-03-12T17:30:54.569Z,25.83
2023-03-12T17:33:22.098Z,21.83
2023-03-12T17:36:00.445Z,25.13
2023-03-12T17:38:28.337Z,23.57
2023-03-12T17:40:55.731Z,22.43
2023-03-12T17:43:23.259Z,19.87
2023-03-12T17:45:50.790Z,20.67
2023-03-12T17:48:19.010Z,18.63
2023-03-12T17:50:46.587Z,15.57
2023-03-12T17:53:14.067Z,17.23
2023-03-12T17:55:41.483Z,15.77
2023-03-12T17:58:08.904Z,15.83
2023-03-12T18:00:36.368Z,15.37
2023-03-12T18:03:03.817Z,15.03
2023-03-12T18:05:31.372Z,13.43
2023-03-12T18:07:58.786Z,14.50
2023-03-12T18:10:26.250Z,14.27
2023-03-12T18:12:53.632Z,15.03
2023-03-12T18:15:21.553Z,14.33
2023-03-12T18:17:52.352Z,14.53
2023-03-12T18:20:32.170Z,13.33
2023-03-12T18:23:05.008Z,13.67
2023-03-12T18:25:32.390Z,12.90
2023-03-12T18:27:59.836Z,14.03
2023-03-12T18:30:28.292Z,13.03
2023-03-12T18:32:55.878Z,15.13
2023-03-12T18:35:28.669Z,12.63
2023-03-12T18:37:56.727Z,15.37
2023-03-12T18:40:24.203Z,14.70
2023-03-12T18:42:51.669Z,15.10
2023-03-12T18:45:19.050Z,14.43
2023-03-12T18:47:50.131Z,16.60
2023-03-12T18:50:18.243Z,14.33
2023-03-12T18:52:45.911Z,13.53
2023-03-12T18:55:15.393Z,14.67
2023-03-12T18:57:43.430Z,14.20
2023-03-12T19:00:13.714Z,13.33
2023-03-12T19:02:41.889Z,14.20
2023-03-12T19:05:10.997Z,12.47
2023-03-12T19:07:39.162Z,12.23
2023-03-12T19:10:07.614Z,13.63
2023-03-12T19:12:45.335Z,10.70
2023-03-12T19:15:18.161Z,11.73
2023-03-12T19:17:45.540Z,10.73
2023-03-12T19:20:14.057Z,12.00
2023-03-12T19:22:41.428Z,11.13
2023-03-12T19:25:09.027Z,12.10
2023-03-12T19:27:36.615Z,14.13
2023-03-12T19:30:04.678Z,10.77
2023-03-12T19:32:42.314Z,11.93
2023-03-12T19:35:11.505Z,11.40
2023-03-12T19:37:38.909Z,12.77
2023-03-12T19:40:06.904Z,12.80
2023-03-12T19:42:34.385Z,11.73
2023-03-12T19:45:01.885Z,12.53
2023-03-12T19:47:33.067Z,13.43
2023-03-12T19:50:00.774Z,11.93
2023-03-12T19:52:28.285Z,15.93
2023-03-12T19:55:04.271Z,15.03
2023-03-12T19:57:33.010Z,13.00
2023-03-12T20:00:00.774Z,14.57
2023-03-12T20:02:29.017Z,16.50
2023-03-12T20:04:56.820Z,15.93
2023-03-12T20:07:24.293Z,14.47
2023-03-12T20:09:52.442Z,15.20
2023-03-12T20:12:19.990Z,16.20
2023-03-12T20:14:47.570Z,19.07
2023-03-12T20:17:15.710Z,18.45
2023-03-12T20:19:43.320Z,17.00
2023-03-12T20:22:10.732Z,18.50
2023-03-12T20:24:38.246Z,17.17
2023-03-12T20:27:05.770Z,14.33
2023-03-12T20:29:33.295Z,14.37
2023-03-12T20:32:00.813Z,14.77
2023-03-12T20:34:28.990Z,16.93
2023-03-12T20:36:59.034Z,13.67
2023-03-12T20:39:26.759Z,13.37
2023-03-12T20:41:54.431Z,11.03
2023-03-12T20:44:21.907Z,12.67
2023-03-12T20:46:49.500Z,10.70
2023-03-12T20:49:16.969Z,12.43
2023-03-12T20:51:45.217Z,9.90
2023-03-12T20:54:12.918Z,8.83
2023-03-12T20:56:43.686Z,10.73
2023-03-12T20:59:12.107Z,10.53
2023-03-12T21:01:39.775Z,9.00
2023-03-12T21:04:07.414Z,8.67
2023-03-12T21:06:35.109Z,11.63
2023-03-12T21:09:03.125Z,9.07
2023-03-12T21:11:31.532Z,9.37
2023-03-12T21:13:59.313Z,7.70
2023-03-12T21:16:32.836Z,6.83
2023-03-12T21:19:01.192Z,9.47
2023-03-12T21:21:30.632Z,7.37
2023-03-12T21:23:58.189Z,7.23
2023-03-12T21:26:25.728Z,6.77
2023-03-12T21:28:53.204Z,8.17
2023-03-12T21:31:20.949Z,7.17
2023-03-12T21:33:49.528Z,6.37
2023-03-12T21:36:17.402Z,7.90
2023-03-12T21:38:45.238Z,7.67
2023-03-12T21:41:14.293Z,6.23
2023-03-12T21:43:42.178Z,8.23
2023-03-12T21:46:10.791Z,7.33
2023-03-12T21:48:38.861Z,6.70
2023-03-12T21:51:07.687Z,7.87
2023-03-12T21:53:35.768Z,7.17
2023-03-12T21:56:04.047Z,8.17
2023-03-12T21:58:31.956Z,6.63
2023-03-12T22:01:03.376Z,8.03
2023-03-12T22:03:30.865Z,6.60
2023-03-12T22:05:58.414Z,6.77
2023-03-12T22:08:26.000Z,5.33
2023-03-12T22:10:53.500Z,7.53
2023-03-12T22:13:21.073Z,7.07
2023-03-12T22:15:56.004Z,7.40
2023-03-12T22:18:23.857Z,7.33
2023-03-12T22:20:54.929Z,9.63
2023-03-12T22:23:22.937Z,6.03
2023-03-12T22:25:50.457Z,6.77
2023-03-12T22:28:18.099Z,7.40
2023-03-12T22:30:45.774Z,6.63
2023-03-12T22:33:13.684Z,6.00
2023-03-12T22:35:47.903Z,7.50
2023-03-12T22:38:15.372Z,5.57
2023-03-12T22:40:43.236Z,6.57
2023-03-12T22:43:10.668Z,6.00
2023-03-12T22:45:38.099Z,6.53
2023-03-12T22:48:05.632Z,7.00
2023-03-12T22:50:33.100Z,7.43
2023-03-12T22:53:00.656Z,6.20
2023-03-12T22:55:28.119Z,7.30
2023-03-12T22:57:55.486Z,5.80
2023-03-12T23:00:23.132Z,7.33
2023-03-12T23:02:51.137Z,7.43
2023-03-12T23:05:18.650Z,6.63
2023-03-12T23:07:46.147Z,6.83
2023-03-12T23:10:13.562Z,5.90
2023-03-12T23:12:41.017Z,5.90
2023-03-12T23:15:08.677Z,7.97
2023-03-12T23:17:36.514Z,6.50
2023-03-12T23:20:04.723Z,5.77
2023-03-12T23:22:33.517Z,6.13
2023-03-12T23:25:00.937Z,5.67
2023-03-12T23:27:28.392Z,7.33
2023-03-12T23:29:55.854Z,5.80
2023-03-12T23:32:23.672Z,7.37
2023-03-12T23:34:51.189Z,5.63
2023-03-12T23:37:18.666Z,7.00
2023-03-12T23:39:54.375Z,5.80
2023-03-12T23:42:22.959Z,5.67
2023-03-12T23:44:50.322Z,6.33
2023-03-12T23:47:17.794Z,5.20
2023-03-12T23:49:45.235Z,6.20
2023-03-12T23:52:12.720Z,6.33
2023-03-12T23:54:40.134Z,5.63
2023-03-12T23:57:07.558Z,5.20
2023-03-12T23:59:34.964Z,5.97
